Time;durP1;ratioP1;P1;durP2;ratioP2;P2;SDS_P1;SDS_P2;PMS_P1;PMS_P2;Temp;Humidity;BMP_temperature;BMP_pressure;BME280_temperature;BME280_humidity;BME280_pressure;Samples;Min_cycle;Max_cycle;Signal;HPM_P1;HPM_P2
2022/05/05 00:02:01;;;;;;;2.00;1.80;;;12.50;44.40;;;;;;5091613;28;20210;-46
2022/05/05 00:04:29;;;;;;;2.33;1.83;;;12.50;44.50;;;;;;5088717;28;20660;-42
2022/05/05 00:06:57;;;;;;;1.80;1.57;;;12.50;44.50;;;;;;5087142;28;20285;-41
2022/05/05 00:09:24;;;;;;;2.73;1.63;;;12.50;44.50;;;;;;5090559;28;20243;-43
2022/05/05 00:14:36;;;;;;;2.10;1.67;;;12.50;44.50;;;;;;5088714;28;20280;-45
2022/05/05 00:17:06;;;;;;;3.03;1.87;;;12.50;44.50;;;;;;5090438;28;20240;-43
2022/05/05 00:19:37;;;;;;;1.80;1.70;;;12.50;44.60;;;;;;5089544;28;20215;-45
2022/05/05 00:22:06;;;;;;;2.63;1.70;;;12.40;44.50;;;;;;5091934;28;20207;-44
2022/05/05 00:24:33;;;;;;;2.97;2.00;;;12.40;44.70;;;;;;5089938;28;20739;-40
2022/05/05 00:27:01;;;;;;;2.07;1.87;;;12.40;44.70;;;;;;5091392;28;20208;-42
2022/05/05 00:29:29;;;;;;;1.60;1.37;;;12.40;44.70;;;;;;5091000;28;20197;-41
2022/05/05 00:31:56;;;;;;;2.30;2.10;;;12.40;44.70;;;;;;5091255;28;20227;-40
2022/05/05 00:34:23;;;;;;;3.20;2.30;;;12.40;44.70;;;;;;5088839;28;20213;-43
2022/05/05 00:36:52;;;;;;;1.93;1.73;;;12.30;44.70;;;;;;5091846;28;20200;-42
2022/05/05 00:39:19;;;;;;;2.93;2.10;;;12.30;44.80;;;;;;5091310;28;20219;-42
2022/05/05 00:41:48;;;;;;;2.10;1.90;;;12.30;44.90;;;;;;5090640;28;20652;-43
2022/05/05 00:44:16;;;;;;;2.47;2.00;;;12.20;44.90;;;;;;5085411;28;20731;-41
2022/05/05 00:46:49;;;;;;;1.77;1.67;;;12.20;45.00;;;;;;5089474;28;20205;-41
2022/05/05 00:49:16;;;;;;;2.83;2.00;;;12.20;45.00;;;;;;5090549;28;20215;-41
2022/05/05 00:51:43;;;;;;;1.93;1.50;;;12.20;45.00;;;;;;5090454;28;20215;-42
2022/05/05 00:54:12;;;;;;;2.97;1.80;;;12.20;45.80;;;;;;5086363;28;20200;-40
2022/05/05 00:56:39;;;;;;;3.30;1.60;;;12.10;45.10;;;;;;5090357;28;20192;-41
2022/05/05 00:59:07;;;;;;;2.50;1.70;;;12.10;45.20;;;;;;5090766;28;20306;-41
2022/05/05 01:01:35;;;;;;;2.50;1.90;;;12.20;45.40;;;;;;5105265;28;20192;-40
2022/05/05 01:04:03;;;;;;;3.27;1.77;;;12.10;45.30;;;;;;5090254;28;20195;-40
2022/05/05 01:06:31;;;;;;;1.70;1.60;;;12.10;45.40;;;;;;5087504;28;20197;-43
2022/05/05 01:08:58;;;;;;;2.10;1.87;;;12.10;45.40;;;;;;5090551;28;20752;-40
2022/05/05 01:11:28;;;;;;;1.63;1.50;;;12.10;45.50;;;;;;5090198;28;20213;-42
2022/05/05 01:13:56;;;;;;;1.93;1.63;;;12.10;45.50;;;;;;5089040;28;20212;-41
2022/05/05 01:16:24;;;;;;;1.90;1.70;;;12.10;45.50;;;;;;5090056;28;20623;-40
2022/05/05 01:18:55;;;;;;;1.80;1.60;;;12.10;45.50;;;;;;5090723;28;20188;-42
2022/05/05 01:21:24;;;;;;;1.90;1.80;;;12.10;45.60;;;;;;5082831;28;20180;-42
2022/05/05 01:23:51;;;;;;;2.63;2.30;;;12.10;45.60;;;;;;5090619;28;20188;-41
2022/05/05 01:29:06;;;;;;;3.50;2.00;;;12.00;45.80;;;;;;5085960;28;20211;-40
2022/05/05 01:31:33;;;;;;;1.87;1.70;;;12.00;45.90;;;;;;5089174;28;20214;-40
2022/05/05 01:34:00;;;;;;;2.17;1.70;;;11.90;45.90;;;;;;5089685;28;20201;-41
2022/05/05 01:36:29;;;;;;;1.80;1.70;;;11.90;46.00;;;;;;5088795;28;20199;-40
2022/05/05 01:38:56;;;;;;;3.10;1.83;;;12.00;46.10;;;;;;5089484;28;20228;-43
2022/05/05 01:41:23;;;;;;;2.03;1.63;;;11.90;46.10;;;;;;5088193;28;20747;-40
2022/05/05 01:43:50;;;;;;;1.93;1.60;;;11.90;46.10;;;;;;5081227;28;20211;-41
2022/05/05 01:46:18;;;;;;;2.23;1.60;;;11.90;46.20;;;;;;5090118;28;20276;-44
2022/05/05 01:48:45;;;;;;;2.20;1.97;;;11.80;46.20;;;;;;5090356;28;20287;-41
2022/05/05 01:51:12;;;;;;;1.97;1.77;;;11.80;46.30;;;;;;5086855;28;20217;-42
2022/05/05 01:53:41;;;;;;;2.97;1.90;;;11.80;46.30;;;;;;5090505;28;20203;-40
2022/05/05 01:56:11;;;;;;;3.63;1.83;;;11.80;47.00;;;;;;5089942;28;20204;-42
2022/05/05 01:58:41;;;;;;;2.47;2.00;;;11.80;46.30;;;;;;5095218;28;20310;-41
2022/05/05 02:01:09;;;;;;;2.93;2.20;;;11.70;46.30;;;;;;5084839;28;20208;-40
2022/05/05 02:03:36;;;;;;;2.40;1.70;;;11.80;46.50;;;;;;5092271;28;20228;-39
2022/05/05 02:06:04;;;;;;;1.60;1.50;;;11.80;46.60;;;;;;5092173;28;20210;-41
2022/05/05 02:08:32;;;;;;;2.10;1.63;;;11.80;46.50;;;;;;5094279;28;20210;-40
2022/05/05 02:11:00;;;;;;;2.17;1.47;;;11.80;46.50;;;;;;5093575;28;20212;-39
2022/05/05 02:13:28;;;;;;;1.43;1.33;;;11.80;46.40;;;;;;5093781;28;20208;-42
2022/05/05 02:15:55;;;;;;;1.73;1.63;;;11.80;46.40;;;;;;5093376;28;20207;-41
2022/05/05 02:18:22;;;;;;;1.90;1.40;;;11.80;46.40;;;;;;5094068;28;20281;-42
2022/05/05 02:20:49;;;;;;;6.67;1.60;;;11.80;46.40;;;;;;5084563;28;20668;-41
2022/05/05 02:23:16;;;;;;;1.83;1.50;;;11.80;46.40;;;;;;5092622;28;20638;-41
2022/05/05 02:25:44;;;;;;;2.07;1.60;;;11.80;46.40;;;;;;5095631;28;20230;-41
2022/05/05 02:28:12;;;;;;;2.10;1.60;;;11.70;46.40;;;;;;5103443;28;20663;-44
2022/05/05 02:30:39;;;;;;;1.40;1.30;;;11.70;46.50;;;;;;5093070;28;20195;-44
2022/05/05 02:33:07;;;;;;;2.03;1.70;;;11.70;46.50;;;;;;5093465;28;20206;-40
2022/05/05 02:35:34;;;;;;;1.60;1.50;;;11.70;46.60;;;;;;5090377;28;20257;-40
2022/05/05 02:40:46;;;;;;;1.70;1.60;;;11.80;46.60;;;;;;5087414;28;20196;-43
2022/05/05 02:43:15;;;;;;;1.60;1.50;;;11.80;46.50;;;;;;5088301;28;20207;-43
2022/05/05 02:45:42;;;;;;;1.20;1.20;;;11.80;46.60;;;;;;5093293;28;20192;-44
2022/05/05 02:48:10;;;;;;;1.50;1.40;;;11.80;46.50;;;;;;5090587;28;20241;-41
2022/05/05 02:50:37;;;;;;;2.00;1.80;;;11.90;46.60;;;;;;5083014;28;20206;-43
2022/05/05 02:54:47;;;;;;;2.67;2.07;;;11.90;46.60;;;;;;5093060;28;20200;-41
2022/05/05 02:55:50;;;;;;;2.57;1.80;;;11.90;46.60;;;;;;5092599;28;20204;-42
2022/05/05 02:58:19;;;;;;;2.20;1.77;;;11.90;46.70;;;;;;5089383;28;20246;-40
2022/05/05 03:00:46;;;;;;;3.33;1.57;;;11.90;46.70;;;;;;5091229;28;20738;-48
2022/05/05 03:03:13;;;;;;;1.73;1.63;;;11.80;46.60;;;;;;5091697;28;20269;-42
2022/05/05 03:05:40;;;;;;;2.57;1.90;;;11.80;46.70;;;;;;5088969;28;20200;-45
2022/05/05 03:08:08;;;;;;;2.43;1.87;;;11.80;46.80;;;;;;5085081;28;20199;-44
2022/05/05 03:10:35;;;;;;;1.77;1.57;;;11.80;47.00;;;;;;5091173;28;20218;-43
2022/05/05 03:13:02;;;;;;;2.27;1.70;;;11.70;47.00;;;;;;5090495;28;20195;-42
2022/05/05 03:15:31;;;;;;;1.50;1.40;;;11.70;47.20;;;;;;5089691;28;20241;-46
2022/05/05 03:17:58;;;;;;;1.43;1.30;;;11.70;47.30;;;;;;5089499;28;20284;-45
2022/05/05 03:20:25;;;;;;;2.50;1.70;;;11.70;47.30;;;;;;5083885;28;20192;-47
2022/05/05 03:22:52;;;;;;;2.43;1.50;;;11.70;47.40;;;;;;5088155;28;20204;-43
2022/05/05 03:25:20;;;;;;;1.67;1.57;;;11.70;47.40;;;;;;5089348;28;20207;-43
2022/05/05 03:27:47;;;;;;;1.60;1.50;;;11.70;47.60;;;;;;5089837;28;20199;-43
2022/05/05 03:30:14;;;;;;;1.70;1.57;;;11.70;47.60;;;;;;5090802;28;20192;-43
2022/05/05 03:32:43;;;;;;;1.73;1.63;;;11.70;47.60;;;;;;5091306;28;20225;-45
2022/05/05 03:35:10;;;;;;;3.30;1.90;;;11.70;47.60;;;;;;5088235;28;20590;-44
2022/05/05 03:37:38;;;;;;;1.47;1.37;;;11.60;47.70;;;;;;5091868;28;20674;-41
2022/05/05 03:40:06;;;;;;;1.97;1.53;;;11.60;47.70;;;;;;5091235;28;20199;-42
2022/05/05 03:42:33;;;;;;;1.50;1.37;;;11.60;47.80;;;;;;5089589;28;20671;-42
2022/05/05 03:45:00;;;;;;;2.13;1.60;;;11.60;47.80;;;;;;5079458;28;20192;-42
2022/05/05 03:47:27;;;;;;;1.60;1.50;;;11.60;47.80;;;;;;5089972;28;20202;-40
2022/05/05 03:49:56;;;;;;;1.70;1.43;;;11.60;47.80;;;;;;5089328;28;20199;-48
2022/05/05 03:52:23;;;;;;;1.33;1.23;;;11.60;47.80;;;;;;5091472;28;20287;-40
2022/05/05 03:54:50;;;;;;;1.70;1.60;;;11.60;47.80;;;;;;5089426;28;20196;-42
2022/05/05 03:57:18;;;;;;;1.70;1.57;;;11.60;47.80;;;;;;5049680;28;1177917;-40
2022/05/05 03:59:45;;;;;;;1.57;1.43;;;11.60;47.90;;;;;;5088098;28;20196;-41
2022/05/05 04:02:12;;;;;;;2.30;1.60;;;11.50;47.80;;;;;;5084615;28;20200;-43
2022/05/05 04:04:39;;;;;;;2.30;1.60;;;11.50;47.80;;;;;;5089730;28;20781;-40
2022/05/05 04:07:07;;;;;;;2.97;1.73;;;11.60;47.90;;;;;;5090229;28;20662;-41
2022/05/05 04:09:35;;;;;;;1.23;1.13;;;11.60;48.00;;;;;;5091300;28;20272;-45
2022/05/05 04:12:02;;;;;;;4.80;1.67;;;11.60;48.00;;;;;;5089981;28;20214;-42
2022/05/05 04:14:29;;;;;;;1.50;1.40;;;11.70;48.00;;;;;;5091799;28;20297;-41
2022/05/05 04:16:56;;;;;;;1.37;1.23;;;11.70;48.00;;;;;;5088567;28;20205;-40
2022/05/05 04:19:23;;;;;;;1.10;1.00;;;11.70;47.90;;;;;;5090011;28;20200;-40
2022/05/05 04:21:51;;;;;;;2.40;1.67;;;11.80;48.10;;;;;;5091230;28;20188;-42
2022/05/05 04:24:19;;;;;;;1.20;1.10;;;11.80;48.10;;;;;;5091169;28;20203;-42
2022/05/05 04:26:47;;;;;;;1.57;1.43;;;11.80;48.00;;;;;;5090344;28;20199;-44
2022/05/05 04:29:14;;;;;;;1.60;1.50;;;11.80;48.00;;;;;;5090898;28;20208;-48
2022/05/05 04:31:44;;;;;;;1.30;1.20;;;11.80;48.10;;;;;;5090868;28;20209;-47
2022/05/05 04:34:12;;;;;;;1.87;1.77;;;11.80;48.10;;;;;;5090763;28;20733;-42
2022/05/05 04:36:39;;;;;;;1.90;1.50;;;11.80;48.10;;;;;;5091970;28;20208;-43
2022/05/05 04:39:07;;;;;;;1.50;1.40;;;11.80;48.20;;;;;;5090980;28;20209;-44
2022/05/05 04:41:35;;;;;;;1.20;1.10;;;11.80;48.30;;;;;;5079655;28;20223;-44
2022/05/05 04:44:02;;;;;;;1.80;1.17;;;11.80;48.90;;;;;;5089993;28;20537;-43
2022/05/05 04:46:30;;;;;;;1.37;1.10;;;11.80;48.40;;;;;;5090545;28;20204;-45
2022/05/05 04:48:57;;;;;;;3.37;1.17;;;11.90;48.50;;;;;;5090158;28;20194;-43
2022/05/05 04:51:24;;;;;;;1.50;1.20;;;11.90;48.50;;;;;;5089264;28;20196;-43
2022/05/05 04:53:51;;;;;;;1.20;1.10;;;11.90;48.50;;;;;;5087175;28;20208;-46
2022/05/05 04:56:18;;;;;;;1.93;1.60;;;11.90;48.50;;;;;;5089068;28;20832;-41
2022/05/05 04:58:47;;;;;;;4.33;1.20;;;12.00;48.70;;;;;;5106334;28;20604;-44
2022/05/05 05:01:14;;;;;;;2.00;1.80;;;12.00;48.70;;;;;;5090736;28;20282;-40
2022/05/05 05:03:41;;;;;;;1.57;1.47;;;12.00;48.80;;;;;;5090985;28;20274;-43
2022/05/05 05:06:10;;;;;;;1.70;1.60;;;12.00;48.90;;;;;;5086594;28;20208;-41
2022/05/05 05:08:37;;;;;;;1.93;1.40;;;12.00;48.90;;;;;;5090714;28;20200;-43
2022/05/05 05:11:05;;;;;;;1.70;1.60;;;12.10;49.00;;;;;;5090338;28;20246;-41
2022/05/05 05:13:32;;;;;;;1.30;1.20;;;12.10;49.00;;;;;;5088733;28;20267;-43
2022/05/05 05:16:01;;;;;;;2.47;1.60;;;12.10;49.00;;;;;;5090243;28;20203;-46
2022/05/05 05:18:28;;;;;;;1.50;1.40;;;12.20;49.10;;;;;;5087021;28;20234;-44
2022/05/05 05:20:55;;;;;;;2.00;1.60;;;12.20;49.20;;;;;;5086498;28;20209;-46
2022/05/05 05:23:22;;;;;;;1.33;1.20;;;12.20;49.20;;;;;;5090143;28;20612;-41
2022/05/05 05:25:50;;;;;;;1.67;1.57;;;12.20;49.20;;;;;;5090252;28;20393;-42
2022/05/05 05:28:17;;;;;;;1.80;1.70;;;12.30;49.40;;;;;;5088098;28;20217;-42
2022/05/05 05:30:44;;;;;;;3.23;1.50;;;12.30;49.50;;;;;;5089931;28;20556;-44
2022/05/05 05:33:12;;;;;;;1.63;1.53;;;12.30;49.60;;;;;;5086557;28;20318;-40
2022/05/05 05:35:40;;;;;;;2.43;1.67;;;12.30;50.20;;;;;;5087219;28;20216;-44
2022/05/05 05:38:07;;;;;;;1.40;1.30;;;12.30;49.60;;;;;;5088584;28;20261;-42
2022/05/05 05:40:34;;;;;;;2.27;1.23;;;12.40;49.70;;;;;;5089865;28;20199;-42
2022/05/05 05:43:01;;;;;;;2.03;1.60;;;12.40;49.70;;;;;;5089684;28;20199;-44
2022/05/05 05:45:28;;;;;;;1.80;1.70;;;12.40;49.80;;;;;;5087656;28;20248;-41
2022/05/05 05:47:55;;;;;;;3.97;1.80;;;12.40;49.70;;;;;;5090016;28;20211;-42
2022/05/05 05:50:24;;;;;;;1.70;1.60;;;12.40;49.70;;;;;;5089161;28;20198;-41
2022/05/05 05:52:51;;;;;;;2.27;2.07;;;12.40;49.80;;;;;;5088471;28;20211;-42
2022/05/05 05:55:18;;;;;;;3.23;1.90;;;12.40;49.80;;;;;;5087888;28;20207;-40
2022/05/05 05:57:46;;;;;;;2.10;1.80;;;12.50;49.90;;;;;;5085259;28;20268;-39
2022/05/05 06:00:14;;;;;;;2.27;1.70;;;12.50;49.90;;;;;;5082351;28;20201;-40
2022/05/05 06:05:27;;;;;;;2.17;1.77;;;12.60;50.00;;;;;;5086839;28;20195;-42
2022/05/05 06:07:58;;;;;;;2.47;1.40;;;12.60;50.00;;;;;;5089999;28;20191;-42
2022/05/05 06:10:26;;;;;;;3.03;1.83;;;12.60;50.00;;;;;;5087752;28;20660;-43
2022/05/05 06:12:53;;;;;;;5.70;1.70;;;12.70;50.00;;;;;;5087314;28;20683;-40
2022/05/05 06:15:22;;;;;;;3.73;2.30;;;12.70;50.00;;;;;;5085123;28;20209;-41
2022/05/05 06:17:49;;;;;;;2.53;2.13;;;12.70;50.00;;;;;;5088394;28;20270;-42
2022/05/05 06:20:17;;;;;;;2.80;2.03;;;12.80;50.00;;;;;;5086365;28;20691;-41
2022/05/05 06:22:46;;;;;;;2.60;1.90;;;12.80;49.90;;;;;;5088523;28;20308;-43
2022/05/05 06:25:14;;;;;;;2.40;2.20;;;12.80;49.80;;;;;;5089613;28;20609;-40
2022/05/05 06:27:41;;;;;;;2.77;2.20;;;12.90;49.90;;;;;;5088470;28;20652;-40
2022/05/05 06:30:11;;;;;;;2.30;2.10;;;12.90;49.90;;;;;;5089457;28;20672;-40
2022/05/05 06:32:38;;;;;;;2.90;2.03;;;12.90;50.00;;;;;;5090270;28;20536;-40
2022/05/05 06:35:06;;;;;;;2.47;1.90;;;13.00;50.10;;;;;;5086448;28;20211;-41
2022/05/05 06:37:33;;;;;;;2.57;2.03;;;13.00;50.70;;;;;;5089969;28;20196;-41
2022/05/05 06:40:02;;;;;;;4.90;2.60;;;13.10;50.20;;;;;;5089214;28;20202;-42
2022/05/05 06:42:29;;;;;;;3.50;2.13;;;13.10;50.20;;;;;;5084454;28;20194;-43
2022/05/05 06:44:57;;;;;;;2.93;2.33;;;13.10;50.40;;;;;;5080205;28;20661;-40
2022/05/05 06:47:25;;;;;;;2.30;2.10;;;13.10;50.50;;;;;;5086902;28;20206;-43
2022/05/05 06:49:52;;;;;;;2.40;2.00;;;13.10;50.50;;;;;;5090071;28;20209;-40
2022/05/05 06:52:19;;;;;;;2.47;2.13;;;13.20;50.60;;;;;;5093597;28;20770;-41
2022/05/05 06:54:46;;;;;;;1.93;1.83;;;13.20;50.70;;;;;;5092834;28;20193;-41
2022/05/05 06:57:15;;;;;;;3.40;2.03;;;13.30;50.70;;;;;;5092809;28;20312;-41
2022/05/05 06:59:43;;;;;;;2.63;2.03;;;13.40;50.80;;;;;;5107854;28;20197;-40
2022/05/05 07:02:09;;;;;;;3.57;2.10;;;13.40;50.80;;;;;;5093334;28;20193;-44
2022/05/05 07:07:22;;;;;;;3.57;1.83;;;13.60;50.90;;;;;;5090474;28;20274;-41
2022/05/05 07:12:35;;;;;;;4.47;1.87;;;13.70;51.00;;;;;;5091403;28;20209;-41
2022/05/05 07:15:03;;;;;;;2.17;1.97;;;13.80;51.00;;;;;;5091443;28;20216;-41
2022/05/05 07:17:30;;;;;;;1.97;1.77;;;13.90;51.20;;;;;;5088521;28;20198;-41
2022/05/05 07:19:59;;;;;;;1.97;1.73;;;14.00;51.20;;;;;;5088614;28;20223;-41
2022/05/05 07:22:26;;;;;;;1.83;1.70;;;14.20;51.20;;;;;;5088281;28;20206;-41
2022/05/05 07:24:53;;;;;;;4.20;1.70;;;14.20;51.10;;;;;;5085715;28;20233;-42
2022/05/05 07:27:21;;;;;;;2.67;1.50;;;14.40;51.20;;;;;;5077607;28;20276;-42
2022/05/05 07:29:49;;;;;;;2.77;1.70;;;14.50;51.30;;;;;;5090611;28;20249;-41
2022/05/05 07:32:16;;;;;;;1.90;1.70;;;14.60;51.40;;;;;;5092439;28;20205;-41
2022/05/05 07:34:43;;;;;;;5.40;2.10;;;14.70;51.40;;;;;;5090452;28;20202;-41
2022/05/05 07:37:11;;;;;;;2.60;1.90;;;14.80;51.60;;;;;;5092634;28;20204;-45
2022/05/05 07:39:38;;;;;;;2.80;2.20;;;14.80;51.50;;;;;;5087909;28;20268;-43
2022/05/05 07:42:06;;;;;;;2.73;2.10;;;15.00;51.60;;;;;;5082815;28;20212;-44
2022/05/05 07:44:33;;;;;;;2.47;2.27;;;15.00;51.70;;;;;;5090359;28;20226;-47
2022/05/05 07:47:02;;;;;;;1.83;1.70;;;15.10;51.70;;;;;;5092483;28;20269;-41
2022/05/05 07:49:29;;;;;;;4.77;1.90;;;15.20;51.80;;;;;;5089935;28;20191;-46
2022/05/05 07:51:56;;;;;;;3.03;2.30;;;15.20;51.90;;;;;;5092210;28;20292;-43
2022/05/05 07:54:36;;;;;;;2.00;1.80;;;15.30;52.00;;;;;;5091099;28;20300;-45
2022/05/05 07:57:03;;;;;;;2.27;2.07;;;15.40;52.10;;;;;;5090655;28;20263;-42
2022/05/05 07:59:31;;;;;;;2.43;1.80;;;15.40;52.20;;;;;;5086969;28;20223;-45
2022/05/05 08:01:58;;;;;;;2.53;2.30;;;15.50;52.30;;;;;;5090434;28;20199;-42
2022/05/05 08:04:27;;;;;;;2.30;2.10;;;15.50;52.30;;;;;;5105126;28;20690;-46
2022/05/05 08:06:54;;;;;;;1.87;1.60;;;15.50;52.40;;;;;;5089753;28;20231;-40
2022/05/05 08:09:21;;;;;;;1.67;1.57;;;15.60;52.40;;;;;;5091290;28;20199;-44
2022/05/05 08:11:48;;;;;;;1.97;1.53;;;15.70;52.40;;;;;;5090900;28;20202;-40
2022/05/05 08:14:16;;;;;;;3.63;1.63;;;15.70;52.50;;;;;;5091213;28;20216;-43
2022/05/05 08:16:43;;;;;;;1.73;1.63;;;15.80;52.50;;;;;;5090491;28;20702;-41
2022/05/05 08:19:10;;;;;;;2.67;1.80;;;15.90;52.60;;;;;;5090013;28;20301;-44
2022/05/05 08:21:39;;;;;;;2.03;1.57;;;16.00;52.70;;;;;;5088596;28;20196;-43
2022/05/05 08:29:37;;;;;;;1.73;1.60;;;16.20;52.80;;;;;;5088460;28;20621;-40
2022/05/05 08:32:05;;;;;;;2.53;1.83;;;16.30;52.80;;;;;;5091022;28;20223;-43
2022/05/05 08:34:32;;;;;;;3.47;1.93;;;16.30;52.90;;;;;;5070400;28;20232;-42
2022/05/05 08:37:01;;;;;;;3.10;2.10;;;16.40;52.90;;;;;;5087851;28;20660;-41
2022/05/05 08:39:28;;;;;;;3.20;1.50;;;16.50;52.90;;;;;;5090649;28;20193;-43
2022/05/05 08:41:55;;;;;;;3.07;1.47;;;16.50;52.90;;;;;;5083316;28;20201;-40
2022/05/05 08:44:23;;;;;;;4.87;1.70;;;16.60;53.10;;;;;;5079115;28;20192;-41
2022/05/05 08:46:53;;;;;;;1.10;1.10;;;16.80;53.20;;;;;;5091239;28;20192;-40
2022/05/05 08:49:24;;;;;;;1.43;1.33;;;16.90;53.20;;;;;;5088472;28;20567;-43
2022/05/05 08:51:54;;;;;;;2.10;1.40;;;17.10;53.10;;;;;;5089844;28;20200;-42
2022/05/05 08:54:25;;;;;;;1.23;1.20;;;17.30;53.00;;;;;;5090860;28;20223;-47
2022/05/05 08:56:54;;;;;;;1.57;1.47;;;17.50;53.10;;;;;;5090535;28;20251;-49
2022/05/05 08:59:22;;;;;;;3.20;1.40;;;17.60;53.10;;;;;;5090735;28;20272;-47
2022/05/05 09:01:51;;;;;;;1.50;1.30;;;17.70;53.10;;;;;;5089310;28;20197;-45
2022/05/05 09:04:18;;;;;;;1.73;1.60;;;17.80;53.10;;;;;;5084584;28;20247;-43
2022/05/05 09:06:47;;;;;;;1.70;1.60;;;17.90;53.10;;;;;;5086318;28;20205;-42
2022/05/05 09:09:27;;;;;;;1.63;1.53;;;18.00;53.10;;;;;;5090569;28;20265;-40
2022/05/05 09:12:14;;;;;;;1.60;1.50;;;18.10;53.10;;;;;;5088501;28;20265;-41
2022/05/05 09:14:44;;;;;;;1.93;1.50;;;18.10;53.10;;;;;;5090334;28;20231;-42
2022/05/05 09:17:14;;;;;;;1.67;1.57;;;18.20;53.10;;;;;;5086202;28;20206;-43
2022/05/05 09:19:45;;;;;;;2.77;1.90;;;18.30;53.00;;;;;;5086758;28;20423;-49
2022/05/05 09:22:13;;;;;;;1.40;1.30;;;18.40;53.00;;;;;;5088540;28;20549;-42
2022/05/05 09:24:45;;;;;;;1.97;1.53;;;18.50;53.00;;;;;;5090652;28;20185;-41
2022/05/05 09:27:16;;;;;;;2.93;1.97;;;18.50;53.00;;;;;;5090646;28;20203;-41
2022/05/05 09:29:44;;;;;;;3.00;2.00;;;18.50;52.90;;;;;;5089864;28;20733;-44
2022/05/05 09:32:13;;;;;;;4.07;1.93;;;18.50;53.00;;;;;;5090652;28;20204;-42
2022/05/05 09:34:40;;;;;;;1.70;1.60;;;18.50;53.10;;;;;;5088551;28;20666;-44
2022/05/05 09:37:18;;;;;;;1.67;1.50;;;18.40;53.10;;;;;;5090599;28;20208;-47
2022/05/05 09:39:47;;;;;;;1.70;1.60;;;18.40;53.20;;;;;;5083870;28;20208;-44
2022/05/05 09:42:35;;;;;;;2.20;1.73;;;18.40;53.40;;;;;;5086567;28;20235;-42
2022/05/05 09:45:19;;;;;;;1.37;1.27;;;18.30;53.30;;;;;;5075859;28;20210;-41
2022/05/05 09:47:49;;;;;;;1.40;1.30;;;18.30;53.50;;;;;;5084799;28;20568;-44
2022/05/05 09:50:19;;;;;;;2.83;1.58;;;18.20;53.60;;;;;;5087988;28;20214;-43
2022/05/05 09:58:21;;;;;;;1.35;1.25;;;18.10;53.90;;;;;;5089304;28;20259;-42
2022/05/05 10:00:57;;;;;;;1.58;1.48;;;18.20;54.00;;;;;;5086810;28;20217;-42
2022/05/05 10:06:26;;;;;;;3.23;1.40;;;18.20;54.10;;;;;;5087940;28;20324;-42
2022/05/05 10:08:54;;;;;;;1.10;1.10;;;18.20;54.20;;;;;;5089521;28;20614;-43
2022/05/05 10:11:25;;;;;;;1.30;1.20;;;18.30;54.30;;;;;;5084930;28;20211;-42
2022/05/05 10:13:52;;;;;;;1.65;1.40;;;18.20;54.20;;;;;;5088958;28;20300;-44
2022/05/05 10:16:20;;;;;;;1.20;1.20;;;18.20;54.40;;;;;;5089329;28;20225;-46
2022/05/05 10:18:48;;;;;;;1.27;1.17;;;18.20;54.50;;;;;;5089664;28;20224;-41
2022/05/05 10:21:28;;;;;;;1.17;1.08;;;18.20;54.60;;;;;;5084708;28;20209;-42
2022/05/05 10:24:06;;;;;;;1.87;1.30;;;18.20;54.60;;;;;;5088046;28;20340;-45
2022/05/05 10:26:35;;;;;;;1.27;1.10;;;18.20;54.60;;;;;;5093117;28;20198;-47
2022/05/05 10:29:02;;;;;;;0.90;0.90;;;18.30;54.80;;;;;;5090373;28;20312;-41
2022/05/05 10:31:47;;;;;;;0.83;0.83;;;18.30;54.90;;;;;;5087871;28;20228;-44
2022/05/05 10:34:16;;;;;;;1.90;1.20;;;18.30;55.10;;;;;;5088165;28;20201;-42
2022/05/05 10:36:59;;;;;;;1.30;1.20;;;18.30;55.30;;;;;;5088355;28;20310;-44
2022/05/05 10:39:41;;;;;;;1.50;1.40;;;18.20;55.50;;;;;;5088952;28;20200;-45
2022/05/05 10:42:17;;;;;;;1.10;1.10;;;18.30;55.90;;;;;;5086002;28;20233;-42
2022/05/05 10:45:13;;;;;;;0.90;0.90;;;18.20;56.10;;;;;;5088052;28;20474;-45
2022/05/05 10:48:18;;;;;;;1.95;1.25;;;18.20;56.50;;;;;;5085586;28;20202;-45
2022/05/05 10:51:03;;;;;;;0.90;0.90;;;18.30;56.90;;;;;;5078344;28;20202;-50
2022/05/05 10:53:33;;;;;;;0.90;0.90;;;18.30;57.30;;;;;;5092168;28;20200;-40
2022/05/05 10:56:01;;;;;;;1.10;1.10;;;18.30;57.70;;;;;;5092184;28;20687;-43
2022/05/05 10:59:11;;;;;;;1.00;1.00;;;18.20;58.10;;;;;;5092743;28;20237;-42
2022/05/05 11:02:04;;;;;;;1.57;1.10;;;18.10;58.50;;;;;;5072787;28;20241;-41
2022/05/05 11:04:33;;;;;;;0.90;0.90;;;18.10;58.90;;;;;;5088893;28;20190;-41
2022/05/05 11:07:37;;;;;;;1.00;1.00;;;18.10;59.20;;;;;;5084421;28;20207;-42
2022/05/05 11:10:09;;;;;;;1.20;1.10;;;18.10;59.70;;;;;;5092516;28;20276;-40
2022/05/05 11:12:37;;;;;;;1.20;1.10;;;18.00;60.00;;;;;;5091634;28;20201;-40
2022/05/05 11:23:42;;;;;;;1.10;1.10;;;18.00;61.60;;;;;;5092922;28;20667;-40
2022/05/05 11:26:12;;;;;;;1.50;1.40;;;17.90;61.90;;;;;;5092670;28;20200;-41
2022/05/05 11:28:39;;;;;;;1.30;1.20;;;17.90;62.40;;;;;;5092534;28;20303;-40
2022/05/05 11:31:19;;;;;;;1.57;1.47;;;17.90;63.50;;;;;;5090372;28;20578;-43
2022/05/05 11:33:55;;;;;;;1.02;1.02;;;17.90;63.10;;;;;;5092774;28;20205;-44
2022/05/05 11:36:26;;;;;;;1.00;1.00;;;17.80;63.20;;;;;;5091125;28;20560;-42
2022/05/05 11:38:54;;;;;;;1.00;1.00;;;17.80;63.40;;;;;;5092709;28;20197;-41
2022/05/05 11:41:22;;;;;;;0.90;0.90;;;17.80;63.80;;;;;;5091361;28;20188;-43
2022/05/05 11:46:36;;;;;;;1.10;1.10;;;17.90;64.40;;;;;;5088542;28;20268;-40
2022/05/05 11:49:04;;;;;;;1.00;1.00;;;17.90;64.80;;;;;;5091449;28;20197;-40
2022/05/05 11:51:33;;;;;;;1.23;0.97;;;17.90;65.10;;;;;;5089441;28;20201;-43
2022/05/05 11:54:05;;;;;;;1.00;1.00;;;17.80;65.30;;;;;;5083830;28;20214;-40
2022/05/05 11:56:33;;;;;;;0.80;0.80;;;17.90;65.70;;;;;;5091418;28;20607;-41
2022/05/05 12:02:05;;;;;;;0.97;0.97;;;17.90;66.10;;;;;;5089948;28;20208;-42
2022/05/05 12:04:36;;;;;;;1.10;1.10;;;18.00;66.40;;;;;;5090199;28;20276;-44
2022/05/05 12:07:04;;;;;;;1.20;1.10;;;18.00;66.50;;;;;;5091105;28;20290;-43
2022/05/05 12:09:31;;;;;;;1.87;1.77;;;18.10;66.60;;;;;;5091479;28;20200;-41
2022/05/05 12:12:12;;;;;;;1.40;1.30;;;18.10;66.80;;;;;;5090894;28;20657;-41
2022/05/05 12:14:45;;;;;;;1.70;1.60;;;18.20;67.10;;;;;;5085629;28;20235;-46
2022/05/05 12:17:19;;;;;;;1.80;1.70;;;18.20;67.30;;;;;;5085754;28;20203;-43
2022/05/05 12:19:51;;;;;;;1.57;1.47;;;18.20;67.40;;;;;;5100277;28;20634;-43
2022/05/05 12:22:39;;;;;;;1.37;1.30;;;18.20;67.50;;;;;;5086415;28;20199;-44
2022/05/05 12:25:13;;;;;;;1.80;1.70;;;18.20;67.70;;;;;;5090132;28;20189;-42
2022/05/05 12:27:40;;;;;;;1.50;1.40;;;18.20;68.10;;;;;;5091245;28;20185;-42
2022/05/05 12:30:08;;;;;;;1.30;1.20;;;18.20;68.40;;;;;;5097128;28;20473;-42
2022/05/05 12:32:49;;;;;;;2.33;2.03;;;18.10;68.70;;;;;;5091609;28;20197;-42
2022/05/05 12:35:28;;;;;;;2.03;1.73;;;18.10;69.10;;;;;;5089673;28;20252;-41
2022/05/05 12:37:57;;;;;;;2.37;1.73;;;18.00;69.50;;;;;;5091337;28;20204;-43
2022/05/05 12:40:24;;;;;;;2.13;1.90;;;17.90;69.90;;;;;;5091252;28;20217;-44
2022/05/05 12:43:00;;;;;;;3.13;1.80;;;17.90;70.50;;;;;;5080507;28;20657;-43
2022/05/05 12:45:28;;;;;;;1.67;1.57;;;17.80;70.80;;;;;;5081540;28;20197;-41
2022/05/05 12:47:56;;;;;;;2.13;1.90;;;17.70;71.20;;;;;;5089787;28;20193;-43
2022/05/05 12:50:33;;;;;;;3.07;2.10;;;17.70;71.70;;;;;;5089237;28;20652;-40
2022/05/05 13:01:23;;;;;;;1.73;1.63;;;17.40;73.90;;;;;;5089819;28;20188;-40
2022/05/05 13:03:50;;;;;;;2.10;2.00;;;17.30;74.60;;;;;;5090884;28;20200;-43
2022/05/05 13:06:19;;;;;;;1.90;1.80;;;17.30;75.40;;;;;;5087967;28;20218;-41
2022/05/05 13:08:47;;;;;;;2.63;2.00;;;17.20;76.00;;;;;;5089716;28;20201;-42
2022/05/05 13:11:15;;;;;;;2.53;2.33;;;17.10;76.60;;;;;;5086022;28;20691;-43
2022/05/05 13:13:42;;;;;;;2.40;2.20;;;17.10;77.20;;;;;;5090600;28;20211;-42
2022/05/05 13:16:09;;;;;;;3.43;2.37;;;17.00;77.60;;;;;;5088642;28;20204;-43
2022/05/05 13:18:38;;;;;;;2.30;2.10;;;17.00;78.10;;;;;;5090329;28;20201;-43
2022/05/05 13:21:05;;;;;;;3.67;2.20;;;17.00;78.70;;;;;;5080583;28;20675;-42
2022/05/05 13:23:33;;;;;;;1.97;1.80;;;16.90;79.90;;;;;;5086457;28;20274;-43
2022/05/05 13:26:01;;;;;;;1.83;1.73;;;16.90;79.70;;;;;;5102088;28;20210;-43
2022/05/05 13:28:29;;;;;;;1.83;1.73;;;16.90;80.20;;;;;;5089930;28;20200;-42
2022/05/05 13:30:56;;;;;;;4.13;1.70;;;16.90;80.70;;;;;;5089837;28;20660;-44
2022/05/05 13:33:25;;;;;;;2.00;1.90;;;16.90;81.20;;;;;;5090218;28;20204;-43
2022/05/05 13:35:52;;;;;;;1.70;1.60;;;16.90;81.60;;;;;;5088565;28;20209;-42
2022/05/05 13:38:20;;;;;;;2.53;2.33;;;16.90;82.00;;;;;;5090083;28;20193;-40
2022/05/05 13:40:48;;;;;;;2.30;2.10;;;16.80;82.40;;;;;;5098833;28;20540;-41
2022/05/05 13:43:16;;;;;;;2.20;2.10;;;16.80;83.00;;;;;;5089456;28;20694;-44
2022/05/05 13:45:43;;;;;;;2.33;1.80;;;16.80;83.40;;;;;;5088945;28;20212;-41
2022/05/05 13:48:10;;;;;;;3.17;1.93;;;16.80;83.80;;;;;;5089798;28;20300;-40
2022/05/05 13:50:37;;;;;;;2.60;2.40;;;16.70;84.20;;;;;;5094950;28;20189;-40
2022/05/05 13:53:04;;;;;;;3.43;2.43;;;16.80;84.80;;;;;;5089622;28;20188;-41